Time;durP1;ratioP1;P1;durP2;ratioP2;P2;SDS_P1;SDS_P2;PMS_P1;PMS_P2;Temp;Humidity;BMP_temperature;BMP_pressure;BME280_temperature;BME280_humidity;BME280_pressure;Samples;Min_cycle;Max_cycle;Signal;HPM_P1;HPM_P2
2023/02/17 00:02:00;;;;;;;6.87;6.27;;;10.70;62.90;;;;;;5039153;28;20176;-88
2023/02/17 00:04:29;;;;;;;7.40;6.60;;;10.80;62.10;;;;;;5038422;28;20279;-87
2023/02/17 00:06:55;;;;;;;6.60;5.97;;;10.80;62.50;;;;;;5038535;28;20216;-87
2023/02/17 00:09:21;;;;;;;9.70;6.50;;;10.80;62.90;;;;;;5037539;28;20192;-85
2023/02/17 00:11:47;;;;;;;6.60;6.00;;;10.70;62.90;;;;;;5036005;28;20184;-86
2023/02/17 00:14:13;;;;;;;7.27;6.37;;;10.80;61.80;;;;;;5024973;28;20216;-86
2023/02/17 00:16:39;;;;;;;7.00;6.27;;;10.90;60.80;;;;;;5016631;28;20181;-86
2023/02/17 00:19:22;;;;;;;7.10;6.40;;;10.90;61.00;;;;;;5017263;28;20224;-87
2023/02/17 00:21:49;;;;;;;7.30;6.60;;;10.80;61.30;;;;;;5032033;28;20746;-90
2023/02/17 00:24:15;;;;;;;7.17;6.47;;;10.80;61.70;;;;;;5055945;28;20216;-90
2023/02/17 00:26:41;;;;;;;7.03;6.30;;;10.90;61.70;;;;;;5056564;28;20193;-90
2023/02/17 00:29:07;;;;;;;6.80;6.10;;;10.70;62.20;;;;;;5054349;28;20192;-87
2023/02/17 00:31:32;;;;;;;8.00;5.90;;;10.70;62.10;;;;;;5040212;28;20575;-88
2023/02/17 00:33:58;;;;;;;7.90;6.50;;;10.70;62.40;;;;;;5020738;28;20265;-87
2023/02/17 00:36:25;;;;;;;7.47;6.23;;;10.70;62.20;;;;;;5020920;28;20235;-86
2023/02/17 00:38:52;;;;;;;6.77;6.17;;;10.70;62.30;;;;;;5021983;28;20214;-86
2023/02/17 00:41:18;;;;;;;6.50;5.93;;;10.70;62.10;;;;;;5036536;28;20184;-87
2023/02/17 00:43:44;;;;;;;6.47;5.87;;;10.60;62.50;;;;;;5041604;28;20200;-86
2023/02/17 00:46:10;;;;;;;8.03;6.80;;;10.60;62.20;;;;;;5038182;28;20235;-87
2023/02/17 00:48:35;;;;;;;6.27;5.67;;;10.70;62.20;;;;;;5041570;28;20204;-87
2023/02/17 00:51:01;;;;;;;7.87;6.10;;;10.70;62.00;;;;;;5041490;28;20188;-87
2023/02/17 00:53:27;;;;;;;6.43;5.83;;;10.80;61.90;;;;;;5041303;28;20243;-88
2023/02/17 00:55:52;;;;;;;7.10;5.50;;;10.80;62.10;;;;;;5040585;28;20195;-89
2023/02/17 00:58:18;;;;;;;6.67;6.03;;;10.90;61.80;;;;;;5041256;28;20204;-88
2023/02/17 01:00:44;;;;;;;6.00;5.50;;;10.90;61.90;;;;;;5041100;28;20177;-87
2023/02/17 01:03:10;;;;;;;6.40;5.80;;;10.90;62.10;;;;;;5029231;28;20213;-88
2023/02/17 01:05:43;;;;;;;6.13;5.53;;;10.90;62.40;;;;;;5019061;28;20255;-88
2023/02/17 01:08:09;;;;;;;8.53;5.80;;;10.80;62.40;;;;;;5019592;28;20181;-87
2023/02/17 01:10:37;;;;;;;7.30;6.40;;;10.80;62.50;;;;;;5018411;28;20185;-87
2023/02/17 01:13:03;;;;;;;7.00;6.00;;;10.80;62.00;;;;;;5020365;28;20205;-87
2023/02/17 01:15:28;;;;;;;6.37;5.77;;;10.90;62.00;;;;;;5021112;28;20185;-87
2023/02/17 01:17:56;;;;;;;7.67;6.93;;;10.90;61.90;;;;;;5021317;28;20312;-87
2023/02/17 01:20:22;;;;;;;6.83;5.80;;;10.80;61.80;;;;;;5025298;28;20181;-86
2023/02/17 01:22:48;;;;;;;6.97;6.27;;;10.80;62.30;;;;;;5039660;28;20246;-87
2023/02/17 01:25:13;;;;;;;7.47;6.37;;;10.90;61.60;;;;;;5038546;28;20181;-89
2023/02/17 01:27:39;;;;;;;6.83;6.23;;;10.80;62.00;;;;;;5038830;28;20181;-89
2023/02/17 01:30:05;;;;;;;7.30;6.23;;;10.80;62.10;;;;;;5041874;28;20177;-87
2023/02/17 01:32:31;;;;;;;6.47;5.90;;;10.80;62.60;;;;;;5042107;28;20262;-87
2023/02/17 01:34:56;;;;;;;7.53;6.80;;;10.70;63.20;;;;;;5041149;28;20185;-86
2023/02/17 01:37:22;;;;;;;7.73;6.17;;;10.70;62.90;;;;;;5042330;28;20197;-88
2023/02/17 01:39:48;;;;;;;7.10;6.40;;;10.70;63.10;;;;;;5041315;28;20200;-86
2023/02/17 01:42:21;;;;;;;7.33;6.60;;;10.70;63.70;;;;;;5042254;28;20173;-88
2023/02/17 01:45:17;;;;;;;7.60;6.70;;;10.50;64.00;;;;;;5043147;28;20177;-87
2023/02/17 01:47:47;;;;;;;6.80;6.13;;;10.70;63.30;;;;;;5042085;28;20223;-86
2023/02/17 01:50:14;;;;;;;7.40;6.60;;;10.70;63.80;;;;;;5042957;28;20178;-87
2023/02/17 01:52:42;;;;;;;7.40;6.43;;;10.70;63.70;;;;;;5028581;28;20524;-87
2023/02/17 01:55:12;;;;;;;7.97;6.70;;;10.60;63.80;;;;;;5035588;28;20190;-86
2023/02/17 01:57:39;;;;;;;7.33;6.50;;;10.50;64.30;;;;;;5022315;28;20190;-88
2023/02/17 02:00:10;;;;;;;7.47;6.40;;;10.50;64.10;;;;;;5020851;28;20181;-86
2023/02/17 02:02:37;;;;;;;8.40;6.40;;;10.50;64.10;;;;;;5021151;28;20280;-87
2023/02/17 02:05:03;;;;;;;7.30;6.20;;;10.50;63.90;;;;;;5021656;28;20181;-86
2023/02/17 02:07:33;;;;;;;10.73;6.50;;;10.70;63.00;;;;;;5027874;28;20181;-88
2023/02/17 02:09:59;;;;;;;6.77;5.97;;;10.80;62.90;;;;;;5046265;28;20184;-87
2023/02/17 02:12:28;;;;;;;7.03;6.33;;;10.70;63.00;;;;;;5045560;28;20208;-87
2023/02/17 02:14:58;;;;;;;7.27;6.57;;;10.70;63.10;;;;;;5036171;28;20200;-86
2023/02/17 02:17:51;;;;;;;7.47;6.53;;;10.70;64.10;;;;;;5025770;28;20186;-89
2023/02/17 02:20:26;;;;;;;7.27;6.57;;;10.70;64.30;;;;;;5026008;28;20180;-86
2023/02/17 02:23:04;;;;;;;6.60;5.93;;;10.70;64.60;;;;;;5024787;28;20245;-86
2023/02/17 02:25:48;;;;;;;7.00;6.27;;;10.60;65.20;;;;;;5038425;28;20177;-88
2023/02/17 02:28:28;;;;;;;8.17;6.40;;;10.60;65.50;;;;;;5044432;28;20213;-86
2023/02/17 02:31:19;;;;;;;9.03;6.63;;;10.60;66.00;;;;;;5044184;28;20269;-87
2023/02/17 02:34:03;;;;;;;6.57;5.80;;;10.70;66.90;;;;;;5044277;28;20294;-87
2023/02/17 02:36:32;;;;;;;7.17;5.40;;;10.80;66.90;;;;;;5043889;28;20169;-87
2023/02/17 02:39:16;;;;;;;6.67;6.07;;;10.90;68.60;;;;;;5042357;28;20260;-89
2023/02/17 02:41:46;;;;;;;7.67;5.27;;;10.90;71.40;;;;;;5044521;28;20165;-87
2023/02/17 02:44:16;;;;;;;6.50;4.87;;;10.90;72.20;;;;;;5044156;28;20196;-88
2023/02/17 02:46:42;;;;;;;5.87;5.07;;;10.90;73.70;;;;;;5045331;28;20268;-86
2023/02/17 02:49:08;;;;;;;5.20;4.70;;;11.00;73.80;;;;;;5045859;28;20200;-88
2023/02/17 02:51:56;;;;;;;6.57;5.00;;;10.90;74.40;;;;;;5045941;28;20185;-87
2023/02/17 02:54:21;;;;;;;5.43;4.93;;;10.90;74.40;;;;;;5044525;28;20213;-87
2023/02/17 02:56:57;;;;;;;5.70;5.10;;;10.80;73.60;;;;;;5040810;28;20216;-88
2023/02/17 02:59:44;;;;;;;6.50;5.50;;;10.80;73.30;;;;;;5024835;28;20209;-88
2023/02/17 03:02:28;;;;;;;5.80;4.77;;;10.80;73.10;;;;;;5025218;28;20193;-88
2023/02/17 03:05:04;;;;;;;7.53;5.13;;;10.70;73.80;;;;;;5024152;28;20185;-87
2023/02/17 03:07:45;;;;;;;5.90;4.40;;;10.70;74.50;;;;;;5023143;28;20185;-88
2023/02/17 03:10:13;;;;;;;5.60;4.57;;;10.70;75.20;;;;;;5026006;28;20413;-86
2023/02/17 03:12:39;;;;;;;5.17;4.57;;;10.70;76.00;;;;;;5024807;28;20212;-88
2023/02/17 03:15:20;;;;;;;5.53;4.93;;;10.70;76.90;;;;;;5038333;28;20193;-87
2023/02/17 03:17:45;;;;;;;5.07;4.57;;;10.80;77.20;;;;;;5023942;28;20342;-87
2023/02/17 03:20:13;;;;;;;5.10;4.70;;;10.70;78.30;;;;;;5023918;28;20232;-87
2023/02/17 03:22:43;;;;;;;5.20;4.33;;;10.60;79.40;;;;;;5044887;28;20204;-87
2023/02/17 03:25:09;;;;;;;5.57;4.43;;;10.70;79.50;;;;;;5044098;28;20417;-87
2023/02/17 03:27:35;;;;;;;5.30;4.13;;;10.80;79.40;;;;;;5046277;28;20181;-87
2023/02/17 03:30:00;;;;;;;5.27;4.33;;;10.80;79.60;;;;;;5043046;28;20182;-88
2023/02/17 03:32:26;;;;;;;5.53;4.07;;;10.70;81.60;;;;;;5025077;28;20213;-89
2023/02/17 03:34:52;;;;;;;4.07;3.67;;;10.70;83.50;;;;;;5024906;28;20346;-86
2023/02/17 03:37:18;;;;;;;5.30;4.00;;;10.60;85.70;;;;;;5024884;28;20618;-87
2023/02/17 03:39:43;;;;;;;5.07;4.10;;;10.60;87.00;;;;;;5035103;28;20230;-86
2023/02/17 03:42:09;;;;;;;3.83;3.43;;;10.60;88.90;;;;;;5045573;28;20200;-86
2023/02/17 03:44:35;;;;;;;4.47;3.50;;;10.70;88.70;;;;;;5045128;28;20200;-88
2023/02/17 03:47:01;;;;;;;4.10;3.80;;;10.60;89.80;;;;;;5038956;28;20182;-87
2023/02/17 03:49:26;;;;;;;3.93;3.30;;;10.60;90.60;;;;;;5031469;28;20178;-89
2023/02/17 03:51:52;;;;;;;5.77;3.73;;;10.50;91.30;;;;;;5028858;28;20687;-88
2023/02/17 03:54:18;;;;;;;4.27;3.87;;;10.70;90.50;;;;;;5028872;28;20205;-87
2023/02/17 03:56:43;;;;;;;3.93;3.53;;;10.60;90.50;;;;;;5023352;28;20197;-88
2023/02/17 03:59:09;;;;;;;4.53;3.57;;;10.70;89.80;;;;;;5024667;28;20289;-87
2023/02/17 04:01:35;;;;;;;3.53;3.23;;;10.70;89.70;;;;;;5022912;28;20588;-86
2023/02/17 04:04:00;;;;;;;7.00;3.50;;;10.70;89.00;;;;;;5038359;28;20219;-87
2023/02/17 04:06:26;;;;;;;5.67;3.37;;;10.70;89.20;;;;;;5043218;28;20172;-90
2023/02/17 04:08:52;;;;;;;3.77;3.47;;;10.70;89.20;;;;;;5042862;28;20177;-87
2023/02/17 04:11:18;;;;;;;4.60;3.13;;;10.70;89.10;;;;;;5042504;28;20177;-90
2023/02/17 04:13:43;;;;;;;5.33;3.30;;;10.70;89.50;;;;;;5042981;28;20208;-88
2023/02/17 04:16:10;;;;;;;3.50;3.20;;;10.70;89.50;;;;;;5042629;28;20665;-88
2023/02/17 04:18:36;;;;;;;3.50;3.20;;;10.60;90.10;;;;;;5041040;28;20205;-88
2023/02/17 04:21:03;;;;;;;3.03;2.73;;;10.60;90.70;;;;;;5036975;28;20184;-86
2023/02/17 04:23:28;;;;;;;3.47;3.17;;;10.50;90.90;;;;;;5034997;28;20730;-88
2023/02/17 04:25:54;;;;;;;4.93;3.27;;;10.50;90.80;;;;;;5033794;28;20261;-88
2023/02/17 04:28:21;;;;;;;6.63;3.50;;;10.50;90.70;;;;;;5040760;28;20260;-87
2023/02/17 04:30:48;;;;;;;4.10;3.70;;;10.40;90.60;;;;;;5040773;28;20185;-87
2023/02/17 04:33:15;;;;;;;6.87;4.40;;;10.40;90.60;;;;;;5041733;28;20227;-87
2023/02/17 04:35:40;;;;;;;5.47;4.20;;;10.40;89.10;;;;;;5038971;28;20725;-86
2023/02/17 04:38:07;;;;;;;6.07;4.40;;;10.30;87.60;;;;;;5039743;28;20197;-90
2023/02/17 04:40:33;;;;;;;5.43;4.93;;;10.30;86.10;;;;;;5057227;28;20193;-88
2023/02/17 04:42:59;;;;;;;7.00;5.20;;;10.20;85.60;;;;;;5056827;28;20184;-87
2023/02/17 04:45:24;;;;;;;6.23;5.40;;;10.20;82.90;;;;;;5046138;28;20220;-87
2023/02/17 04:47:50;;;;;;;5.67;5.17;;;10.30;79.80;;;;;;5044653;28;20191;-86
2023/02/17 04:50:16;;;;;;;7.07;6.40;;;10.20;79.10;;;;;;5043357;28;20648;-88
2023/02/17 04:52:42;;;;;;;6.33;5.73;;;10.20;78.10;;;;;;5043618;28;20202;-86
2023/02/17 04:55:08;;;;;;;6.87;5.43;;;10.20;78.00;;;;;;5026408;28;20189;-86
2023/02/17 04:57:34;;;;;;;6.47;5.40;;;10.20;77.80;;;;;;5021420;28;20189;-87
2023/02/17 05:00:00;;;;;;;6.27;5.63;;;10.20;78.10;;;;;;5020569;28;20274;-87
2023/02/17 05:02:27;;;;;;;6.37;5.47;;;10.20;78.30;;;;;;5024286;28;20582;-86
2023/02/17 05:04:53;;;;;;;5.10;4.57;;;10.20;78.30;;;;;;5039090;28;20242;-87
2023/02/17 05:07:19;;;;;;;6.07;5.47;;;10.30;77.50;;;;;;5041135;28;20177;-87
2023/02/17 05:09:45;;;;;;;5.80;5.20;;;10.20;78.00;;;;;;5038447;28;20181;-89
2023/02/17 05:12:10;;;;;;;6.10;4.83;;;10.40;78.10;;;;;;5043566;28;20185;-87
2023/02/17 05:14:36;;;;;;;5.17;4.67;;;10.40;78.10;;;;;;5041367;28;20184;-88
2023/02/17 05:17:02;;;;;;;6.30;4.57;;;10.50;78.40;;;;;;5023346;28;20212;-86
2023/02/17 05:19:28;;;;;;;6.47;4.50;;;10.40;79.20;;;;;;5025211;28;20244;-87
2023/02/17 05:21:54;;;;;;;4.70;4.20;;;10.50;79.20;;;;;;5037242;28;20273;-87
2023/02/17 05:24:19;;;;;;;6.63;4.30;;;10.50;80.00;;;;;;5049718;28;20291;-89
2023/02/17 05:26:45;;;;;;;5.10;4.17;;;10.50;79.90;;;;;;5044722;28;20208;-87
2023/02/17 05:29:11;;;;;;;4.10;3.70;;;10.50;81.20;;;;;;5043179;28;20253;-87
2023/02/17 05:31:36;;;;;;;8.03;3.73;;;10.50;82.20;;;;;;5043692;28;20177;-87
2023/02/17 05:34:02;;;;;;;3.93;3.53;;;10.60;85.00;;;;;;5042185;28;20202;-86
2023/02/17 05:36:28;;;;;;;3.87;3.47;;;10.30;89.40;;;;;;5042802;28;20219;-89
2023/02/17 05:38:53;;;;;;;4.63;3.60;;;10.30;91.00;;;;;;5059806;28;20196;-87
2023/02/17 05:41:19;;;;;;;3.80;3.47;;;10.30;93.50;;;;;;5042938;28;20204;-86
2023/02/17 05:43:45;;;;;;;4.07;3.67;;;10.20;95.20;;;;;;5046139;28;20264;-86
2023/02/17 05:46:11;;;;;;;3.20;2.90;;;10.30;94.40;;;;;;5044474;28;20187;-88
2023/02/17 05:48:37;;;;;;;3.87;3.00;;;10.30;94.20;;;;;;5044211;28;20181;-85
2023/02/17 05:51:03;;;;;;;3.37;3.07;;;10.20;94.60;;;;;;5044583;28;20177;-86
2023/02/17 05:53:29;;;;;;;4.30;3.40;;;10.30;94.50;;;;;;5044138;28;20192;-86
2023/02/17 05:55:55;;;;;;;3.47;3.00;;;10.10;96.20;;;;;;5044083;28;20190;-86
2023/02/17 05:58:21;;;;;;;3.50;3.20;;;10.10;97.20;;;;;;5043795;28;20212;-86
2023/02/17 06:00:47;;;;;;;4.07;3.63;;;10.20;96.20;;;;;;5045379;28;20180;-87
2023/02/17 06:03:13;;;;;;;3.57;3.13;;;10.20;96.50;;;;;;5045024;28;20223;-83
2023/02/17 06:05:39;;;;;;;4.87;3.30;;;10.30;96.30;;;;;;5044155;28;20177;-86
2023/02/17 06:08:06;;;;;;;3.60;3.30;;;10.40;96.40;;;;;;5043677;28;20212;-88
2023/02/17 06:10:31;;;;;;;3.77;3.40;;;10.40;96.30;;;;;;5028192;28;20193;-88
2023/02/17 06:12:57;;;;;;;3.97;3.57;;;10.40;96.50;;;;;;5023069;28;20228;-88
2023/02/17 06:15:23;;;;;;;4.20;3.47;;;10.40;96.80;;;;;;5023731;28;20265;-86
2023/02/17 06:17:49;;;;;;;4.93;3.00;;;10.50;96.50;;;;;;5030630;28;20204;-86
2023/02/17 06:20:15;;;;;;;3.17;2.93;;;10.50;97.10;;;;;;5042720;28;20185;-87
2023/02/17 06:22:41;;;;;;;6.83;2.93;;;10.50;97.30;;;;;;5044409;28;20590;-87
2023/02/17 06:25:08;;;;;;;4.17;3.50;;;10.40;97.80;;;;;;5043445;28;20197;-88
2023/02/17 06:27:34;;;;;;;3.57;3.10;;;10.40;98.00;;;;;;5046357;28;20181;-87
2023/02/17 06:30:00;;;;;;;4.00;3.17;;;10.40;98.40;;;;;;5028003;28;20186;-87
2023/02/17 06:32:27;;;;;;;3.30;3.00;;;10.40;98.40;;;;;;5045548;28;20204;-87
2023/02/17 06:34:53;;;;;;;3.50;3.20;;;10.40;97.90;;;;;;5044267;28;20177;-86
2023/02/17 06:37:18;;;;;;;6.43;3.30;;;10.40;98.20;;;;;;5046552;28;20270;-87
2023/02/17 06:39:44;;;;;;;3.40;3.10;;;10.40;98.10;;;;;;5041477;28;20185;-87
2023/02/17 06:42:09;;;;;;;3.87;3.47;;;10.50;97.60;;;;;;5039878;28;20403;-89
2023/02/17 06:44:35;;;;;;;3.93;3.33;;;10.50;96.90;;;;;;5019732;28;20177;-89
2023/02/17 06:47:01;;;;;;;3.57;3.27;;;10.60;96.20;;;;;;5020547;28;20174;-89
2023/02/17 06:49:27;;;;;;;3.97;3.57;;;10.50;96.70;;;;;;5020627;28;20568;-89
2023/02/17 06:51:54;;;;;;;4.03;3.47;;;10.50;95.50;;;;;;5020334;28;20700;-89
2023/02/17 06:54:19;;;;;;;4.63;3.17;;;10.60;94.20;;;;;;5019039;28;20707;-90
2023/02/17 06:56:45;;;;;;;4.23;3.70;;;10.60;94.00;;;;;;5020723;28;20223;-88
2023/02/17 06:59:10;;;;;;;5.50;3.50;;;10.70;93.50;;;;;;5022139;28;20419;-86
2023/02/17 07:01:37;;;;;;;4.37;3.80;;;10.70;92.80;;;;;;5021835;28;20178;-89
2023/02/17 07:04:03;;;;;;;5.20;4.03;;;10.70;93.30;;;;;;5022152;28;20221;-90
2023/02/17 07:06:29;;;;;;;4.47;3.80;;;10.60;92.60;;;;;;5022134;28;20184;-87
2023/02/17 07:08:54;;;;;;;4.60;4.20;;;10.60;92.10;;;;;;5020603;28;20179;-89
2023/02/17 07:11:20;;;;;;;5.63;4.13;;;10.60;91.20;;;;;;5022933;28;20189;-89
2023/02/17 07:13:46;;;;;;;5.07;3.90;;;10.60;90.40;;;;;;5026633;28;20219;-88
2023/02/17 07:16:13;;;;;;;5.60;4.30;;;10.60;89.50;;;;;;5039422;28;20196;-88
2023/02/17 07:18:39;;;;;;;6.00;4.30;;;10.70;88.90;;;;;;5040885;28;20219;-87
2023/02/17 07:21:06;;;;;;;4.90;4.13;;;10.70;88.70;;;;;;5041013;28;20185;-89
2023/02/17 07:23:32;;;;;;;4.30;3.90;;;10.60;89.00;;;;;;5041630;28;20204;-90
2023/02/17 07:26:08;;;;;;;5.27;4.43;;;10.70;88.40;;;;;;5040973;28;20192;-91
2023/02/17 07:28:34;;;;;;;5.70;3.97;;;10.80;87.50;;;;;;5041380;28;20184;-89
2023/02/17 07:31:14;;;;;;;5.07;4.00;;;10.70;87.00;;;;;;5041090;28;20172;-88
2023/02/17 07:33:42;;;;;;;6.90;4.43;;;10.80;85.60;;;;;;5022634;28;20737;-87
2023/02/17 07:36:10;;;;;;;8.20;5.00;;;10.90;85.40;;;;;;5020354;28;20198;-90
2023/02/17 07:38:36;;;;;;;4.80;4.33;;;10.90;84.60;;;;;;5020469;28;20198;-89
2023/02/17 07:41:16;;;;;;;9.47;4.53;;;10.80;85.10;;;;;;5021827;28;20200;-88
2023/02/17 07:43:43;;;;;;;6.00;4.17;;;10.70;85.90;;;;;;5021228;28;20216;-89
2023/02/17 07:46:09;;;;;;;8.23;4.90;;;10.60;86.50;;;;;;5020473;28;20250;-89
2023/02/17 07:48:35;;;;;;;11.30;10.20;;;10.70;86.20;;;;;;5018965;28;20213;-91
2023/02/17 07:51:09;;;;;;;7.77;5.37;;;10.80;83.40;;;;;;5020551;28;20204;-89
2023/02/17 07:53:35;;;;;;;5.63;4.87;;;10.70;83.20;;;;;;5019458;28;20212;-88
2023/02/17 07:56:02;;;;;;;6.60;5.80;;;10.70;83.80;;;;;;5019586;28;20236;-88
2023/02/17 07:58:31;;;;;;;8.10;5.23;;;10.70;82.80;;;;;;5019929;28;20193;-92
2023/02/17 08:00:57;;;;;;;5.50;4.93;;;10.70;83.00;;;;;;5028346;28;20177;-90
2023/02/17 08:03:22;;;;;;;6.40;4.87;;;10.70;83.80;;;;;;5040053;28;20232;-89
2023/02/17 08:05:50;;;;;;;8.53;5.27;;;10.60;85.00;;;;;;5037588;28;20177;-88
2023/02/17 08:13:45;;;;;;;8.07;4.87;;;10.60;84.50;;;;;;5041692;28;20708;-88
2023/02/17 08:16:11;;;;;;;6.30;5.37;;;10.50;84.60;;;;;;5023043;28;20190;-89
2023/02/17 08:18:36;;;;;;;8.63;5.57;;;10.50;85.20;;;;;;5021036;28;20205;-88
2023/02/17 08:21:02;;;;;;;6.97;5.20;;;10.50;86.20;;;;;;5026690;28;20181;-88
2023/02/17 08:23:29;;;;;;;7.03;5.07;;;10.50;85.60;;;;;;5040361;28;20702;-89
2023/02/17 08:25:57;;;;;;;9.77;4.90;;;10.50;88.20;;;;;;5039434;28;20300;-89
2023/02/17 08:28:23;;;;;;;6.00;5.40;;;10.40;92.40;;;;;;5039756;28;20192;-89
2023/02/17 08:30:48;;;;;;;6.97;4.90;;;10.40;94.90;;;;;;5038923;28;20177;-87
2023/02/17 08:33:16;;;;;;;5.67;5.07;;;10.30;97.40;;;;;;5041357;28;20208;-87
2023/02/17 08:35:43;;;;;;;5.77;5.17;;;10.20;99.20;;;;;;5040487;28;20188;-88
2023/02/17 08:38:09;;;;;;;5.73;4.60;;;10.20;99.10;;;;;;5039787;28;20196;-89
2023/02/17 08:40:35;;;;;;;5.17;4.57;;;10.20;99.70;;;;;;5038364;28;20275;-88
2023/02/17 08:43:01;;;;;;;5.90;5.30;;;10.20;99.90;;;;;;5037572;28;20712;-89
2023/02/17 08:45:26;;;;;;;5.97;4.27;;;10.00;99.90;;;;;;5035790;28;20196;-88
2023/02/17 08:47:52;;;;;;;5.23;4.73;;;10.10;99.90;;;;;;5036289;28;20177;-87
2023/02/17 08:50:18;;;;;;;4.83;4.30;;;10.10;99.90;;;;;;5040080;28;20582;-87
2023/02/17 08:52:45;;;;;;;6.73;4.27;;;10.10;99.90;;;;;;5054206;28;20189;-92
2023/02/17 08:55:11;;;;;;;6.07;4.90;;;10.20;99.90;;;;;;5055859;28;20176;-91
2023/02/17 08:57:37;;;;;;;7.60;5.63;;;10.20;99.90;;;;;;5055910;28;20233;-89
2023/02/17 09:00:06;;;;;;;5.00;4.60;;;10.20;99.90;;;;;;5039907;28;20261;-89
2023/02/17 09:02:31;;;;;;;6.50;4.83;;;10.20;99.90;;;;;;5039708;28;20741;-88
2023/02/17 09:04:57;;;;;;;6.27;4.93;;;10.30;99.90;;;;;;5050951;28;20172;-89
2023/02/17 09:07:23;;;;;;;5.97;4.40;;;10.20;99.90;;;;;;5049832;28;20181;-90
2023/02/17 09:09:48;;;;;;;4.90;4.40;;;10.20;99.90;;;;;;5045693;28;20582;-90
2023/02/17 09:12:14;;;;;;;5.43;4.93;;;10.20;99.90;;;;;;5041942;28;20184;-88
2023/02/17 09:14:39;;;;;;;5.10;4.60;;;10.20;99.90;;;;;;5038719;28;20177;-89
2023/02/17 09:17:06;;;;;;;5.27;4.20;;;10.30;99.90;;;;;;5039931;28;20200;-89
2023/02/17 09:19:32;;;;;;;8.97;4.10;;;10.30;99.90;;;;;;5024180;28;20233;-89
2023/02/17 09:21:58;;;;;;;4.93;4.37;;;10.40;99.90;;;;;;5038506;28;20784;-89
2023/02/17 09:24:23;;;;;;;5.03;4.53;;;10.50;99.90;;;;;;5043542;28;20223;-89
2023/02/17 09:26:49;;;;;;;7.33;4.20;;;10.50;99.90;;;;;;5042037;28;20181;-88
2023/02/17 09:29:15;;;;;;;5.03;4.37;;;10.50;99.90;;;;;;5043523;28;20184;-88
2023/02/17 09:31:40;;;;;;;5.47;3.90;;;10.50;99.90;;;;;;5037914;28;20289;-90
2023/02/17 09:34:06;;;;;;;5.20;4.23;;;10.60;99.90;;;;;;5021680;28;20267;-90
2023/02/17 09:36:37;;;;;;;4.60;4.00;;;10.60;99.90;;;;;;5021723;28;20251;-89
2023/02/17 09:39:03;;;;;;;4.43;4.03;;;10.60;99.90;;;;;;5022944;28;20774;-89
2023/02/17 09:41:36;;;;;;;6.80;4.53;;;10.60;99.90;;;;;;5042504;28;20205;-89
2023/02/17 09:44:05;;;;;;;4.30;3.83;;;10.70;99.90;;;;;;5042964;28;20242;-88
2023/02/17 09:46:36;;;;;;;4.90;3.93;;;10.70;99.90;;;;;;5040339;28;20181;-83
2023/02/17 09:49:08;;;;;;;5.03;4.00;;;10.80;99.90;;;;;;5045255;28;20191;-87
2023/02/17 09:51:55;;;;;;;5.60;3.60;;;10.80;99.90;;;;;;5043994;28;20176;-86
2023/02/17 09:54:31;;;;;;;4.27;3.80;;;11.00;99.80;;;;;;5046302;28;20230;-88
2023/02/17 09:56:58;;;;;;;4.43;3.33;;;11.20;97.90;;;;;;5036035;28;20505;-88
2023/02/17 09:59:38;;;;;;;4.10;3.70;;;11.20;97.10;;;;;;5027453;28;20218;-87
2023/02/17 10:02:19;;;;;;;4.17;3.63;;;11.20;95.20;;;;;;5045639;28;20165;-86
2023/02/17 10:04:47;;;;;;;3.80;3.50;;;11.40;93.50;;;;;;5029671;28;20539;-88
2023/02/17 10:07:31;;;;;;;4.20;3.67;;;11.30;93.40;;;;;;5028292;28;20190;-88
2023/02/17 10:10:14;;;;;;;5.47;4.03;;;11.50;92.90;;;;;;5024880;28;20170;-86
2023/02/17 10:12:46;;;;;;;6.80;4.03;;;11.50;91.50;;;;;;5036782;28;20255;-86
2023/02/17 10:15:19;;;;;;;6.03;4.20;;;11.50;92.60;;;;;;5044570;28;20758;-85
2023/02/17 10:18:05;;;;;;;6.37;4.20;;;11.40;93.60;;;;;;5045147;28;20204;-87
2023/02/17 10:20:35;;;;;;;5.53;3.90;;;11.30;93.90;;;;;;5046822;28;20269;-86
2023/02/17 10:23:21;;;;;;;4.80;4.30;;;11.40;92.70;;;;;;5046302;28;20215;-87
2023/02/17 10:26:14;;;;;;;4.90;4.27;;;11.40;92.20;;;;;;5029987;28;20205;-87
2023/02/17 10:28:51;;;;;;;5.37;4.57;;;11.40;92.30;;;;;;5040531;28;20189;-89
2023/02/17 10:31:39;;;;;;;5.27;4.40;;;11.40;93.60;;;;;;5043783;28;20189;-89
2023/02/17 10:34:11;;;;;;;5.80;4.70;;;11.50;92.80;;;;;;5044696;28;20278;-88
2023/02/17 10:36:58;;;;;;;5.93;4.60;;;11.40;92.20;;;;;;5043945;28;20184;-86
2023/02/17 10:39:32;;;;;;;4.70;4.20;;;11.50;92.60;;;;;;5044096;28;20211;-87
2023/02/17 10:41:59;;;;;;;5.30;4.80;;;11.50;91.80;;;;;;5032958;28;20178;-87
2023/02/17 10:44:25;;;;;;;4.73;4.30;;;11.60;93.20;;;;;;5024742;28;20193;-87
2023/02/17 10:46:52;;;;;;;10.30;7.40;;;11.50;92.60;;;;;;5031512;28;20257;-87
2023/02/17 10:49:48;;;;;;;4.93;4.33;;;11.70;92.50;;;;;;5044741;28;20181;-87
2023/02/17 10:52:26;;;;;;;5.83;5.23;;;11.60;94.80;;;;;;5042104;28;20284;-86
2023/02/17 10:55:04;;;;;;;5.07;4.53;;;11.60;95.10;;;;;;5035360;28;20248;-85
2023/02/17 10:57:36;;;;;;;8.10;4.90;;;11.50;97.40;;;;;;5024697;28;20270;-87
2023/02/17 11:00:04;;;;;;;7.43;5.17;;;11.40;96.60;;;;;;5040873;28;20173;-88
2023/02/17 11:02:36;;;;;;;5.80;4.80;;;11.50;97.40;;;;;;5044287;28;20248;-87
2023/02/17 11:05:02;;;;;;;7.23;5.00;;;11.50;96.40;;;;;;5046347;28;20212;-87
2023/02/17 11:07:41;;;;;;;5.80;5.20;;;11.50;96.70;;;;;;5046142;28;20173;-87
2023/02/17 11:10:39;;;;;;;5.33;4.83;;;11.50;96.70;;;;;;5047492;28;20169;-87
2023/02/17 11:13:43;;;;;;;5.60;5.10;;;11.50;97.30;;;;;;5011825;28;20205;-89
2023/02/17 11:16:41;;;;;;;8.70;5.37;;;11.40;98.00;;;;;;5045132;28;20168;-86
2023/02/17 11:19:20;;;;;;;6.37;5.10;;;11.40;97.40;;;;;;5045214;28;20604;-88
2023/02/17 11:21:46;;;;;;;6.93;5.17;;;11.40;99.00;;;;;;5044378;28;20177;-88
2023/02/17 11:24:12;;;;;;;9.33;5.40;;;11.50;98.10;;;;;;5037229;28;20220;-87
2023/02/17 11:26:37;;;;;;;6.93;5.57;;;11.60;98.60;;;;;;5025243;28;20174;-87
2023/02/17 11:29:07;;;;;;;6.00;5.50;;;11.50;98.90;;;;;;5024817;28;20664;-87
2023/02/17 11:31:33;;;;;;;5.60;5.07;;;11.50;99.40;;;;;;5024926;28;20182;-87
2023/02/17 11:34:10;;;;;;;5.80;5.23;;;11.50;99.20;;;;;;5026119;28;20210;-87
2023/02/17 11:36:35;;;;;;;6.07;5.30;;;11.40;99.90;;;;;;5025264;28;20185;-88
2023/02/17 11:39:18;;;;;;;6.47;5.13;;;11.40;99.90;;;;;;5038171;28;20366;-86
2023/02/17 11:41:43;;;;;;;5.73;5.23;;;11.40;99.90;;;;;;5044175;28;20165;-88
2023/02/17 11:44:11;;;;;;;5.90;5.30;;;11.30;99.90;;;;;;5044609;28;20259;-87
2023/02/17 11:47:06;;;;;;;7.40;4.70;;;11.40;99.90;;;;;;5042948;28;20165;-87
2023/02/17 11:49:42;;;;;;;5.70;5.10;;;11.40;99.90;;;;;;5043304;28;20173;-86
2023/02/17 11:52:30;;;;;;;5.47;5.00;;;11.30;99.90;;;;;;5030778;28;20197;-88
2023/02/17 11:55:23;;;;;;;6.10;5.50;;;11.30;99.90;;;;;;5027931;28;20280;-87
2023/02/17 11:58:05;;;;;;;6.17;5.67;;;11.30;99.90;;;;;;5035948;28;20201;-88
2023/02/17 12:01:01;;;;;;;5.43;4.93;;;11.40;99.90;;;;;;5042830;28;20176;-86
2023/02/17 12:03:57;;;;;;;5.67;5.17;;;11.40;99.90;;;;;;5043567;28;20353;-87
2023/02/17 12:07:10;;;;;;;6.43;5.10;;;11.50;99.90;;;;;;5041915;28;20192;-86
2023/02/17 12:09:56;;;;;;;5.97;5.00;;;11.60;99.90;;;;;;4981475;28;20186;-87
2023/02/17 12:12:43;;;;;;;5.00;4.60;;;11.60;99.90;;;;;;5038821;28;20209;-88
2023/02/17 12:15:20;;;;;;;6.73;5.53;;;11.70;99.90;;;;;;5043289;28;20793;-88
2023/02/17 12:18:04;;;;;;;8.40;5.30;;;11.60;99.90;;;;;;5044535;28;20640;-86
2023/02/17 12:20:49;;;;;;;6.57;5.30;;;11.60;99.90;;;;;;5039589;28;20182;-86
2023/02/17 12:23:39;;;;;;;6.20;5.50;;;11.70;99.90;;;;;;5043252;28;20193;-87
2023/02/17 12:26:32;;;;;;;5.57;5.07;;;11.70;99.90;;;;;;5027354;28;20182;-87
2023/02/17 12:29:10;;;;;;;6.20;5.60;;;11.70;99.90;;;;;;5029965;28;20174;-87
2023/02/17 12:32:25;;;;;;;6.57;5.97;;;11.60;99.90;;;;;;5029425;28;20185;-89
2023/02/17 12:35:23;;;;;;;8.23;6.23;;;11.60;99.90;;;;;;5013004;28;20201;-88
2023/02/17 12:38:02;;;;;;;5.70;5.20;;;11.60;99.90;;;;;;5019916;28;20198;-87
2023/02/17 12:40:41;;;;;;;7.07;5.33;;;11.70;99.90;;;;;;5040460;28;20289;-88
2023/02/17 12:43:33;;;;;;;10.37;5.77;;;11.80;99.90;;;;;;5039548;28;20217;-88
2023/02/17 12:46:04;;;;;;;6.73;5.23;;;11.90;99.90;;;;;;5037874;28;20210;-89
2023/02/17 12:48:54;;;;;;;5.77;5.23;;;11.90;99.90;;;;;;5038288;28;20177;-88
2023/02/17 12:51:38;;;;;;;5.63;5.13;;;12.00;99.90;;;;;;5033612;28;20754;-87
2023/02/17 12:54:14;;;;;;;5.57;4.87;;;12.00;99.30;;;;;;5037363;28;20297;-86
2023/02/17 12:57:05;;;;;;;4.83;4.40;;;11.90;99.90;;;;;;5038210;28;20250;-88
2023/02/17 12:59:32;;;;;;;5.53;5.00;;;12.10;99.10;;;;;;5038351;28;20221;-87
2023/02/17 13:02:13;;;;;;;5.63;5.00;;;12.00;99.30;;;;;;5049988;28;20193;-92
2023/02/17 13:04:41;;;;;;;6.40;4.77;;;12.20;98.50;;;;;;5037487;28;20173;-86
2023/02/17 13:07:28;;;;;;;7.87;5.30;;;12.20;98.70;;;;;;5036652;28;20175;-88
2023/02/17 13:09:55;;;;;;;5.17;4.67;;;12.10;99.10;;;;;;5020525;28;20227;-88